createdAt,value
2022-10-10T00:00:30.082Z,100361.69
2022-10-10T00:01:34.846Z,100369.00
2022-10-10T00:02:36.504Z,100363.66
2022-10-10T00:03:37.979Z,100367.59
2022-10-10T00:04:39.582Z,100371.53
2022-10-10T00:05:41.076Z,100366.19
2022-10-10T00:06:42.631Z,100367.63
2022-10-10T00:07:45.445Z,100365.91
2022-10-10T00:08:46.930Z,100366.19
2022-10-10T00:09:48.398Z,100366.47
2022-10-10T00:10:49.902Z,100362.84
2022-10-10T00:11:51.366Z,100359.19
2022-10-10T00:12:53.093Z,100362.00
2022-10-10T00:13:54.911Z,100360.31
2022-10-10T00:14:56.384Z,100361.19
2022-10-10T00:15:57.852Z,100363.16
2022-10-10T00:16:59.330Z,100365.97
2022-10-10T00:18:00.829Z,100372.69
2022-10-10T00:19:02.324Z,100369.03
2022-10-10T00:20:03.911Z,100373.81
2022-10-10T00:21:05.666Z,100366.50
2022-10-10T00:22:07.200Z,100364.81
2022-10-10T00:23:08.670Z,100365.94
2022-10-10T00:24:10.583Z,100372.38
2022-10-10T00:25:12.043Z,100375.47
2022-10-10T00:26:18.538Z,100365.41
2022-10-10T00:27:20.815Z,100376.59
2022-10-10T00:28:22.375Z,100380.25
2022-10-10T00:29:23.957Z,100378.56
2022-10-10T00:30:30.732Z,100367.34
2022-10-10T00:31:32.222Z,100371.28
2022-10-10T00:32:33.900Z,100378.56
2022-10-10T00:33:35.614Z,100365.69
2022-10-10T00:34:37.491Z,100369.31
2022-10-10T00:35:39.523Z,100368.47
2022-10-10T00:36:40.991Z,100371.28
2022-10-10T00:37:42.445Z,100368.47
2022-10-10T00:38:43.957Z,100369.59
2022-10-10T00:39:45.450Z,100373.25
2022-10-10T00:40:47.766Z,100378.84
2022-10-10T00:41:49.295Z,100369.91
2022-10-10T00:42:50.937Z,100368.22
2022-10-10T00:44:05.684Z,100372.16
2022-10-10T00:45:18.986Z,100370.16
2022-10-10T00:46:20.443Z,100366.81
2022-10-10T00:47:21.939Z,100362.34
2022-10-10T00:48:27.544Z,100364.31
2022-10-10T00:49:29.173Z,100368.22
2022-10-10T00:50:30.691Z,100363.47
2022-10-10T00:51:32.243Z,100363.47
2022-10-10T00:52:33.861Z,100368.22
2022-10-10T00:53:42.982Z,100368.22
2022-10-10T00:54:44.498Z,100368.22
2022-10-10T00:55:46.025Z,100360.09
2022-10-10T00:56:48.386Z,100360.94
2022-10-10T00:57:50.043Z,100364.59
2022-10-10T00:58:52.347Z,100366.53
2022-10-10T00:59:53.804Z,100362.06
2022-10-10T01:00:55.314Z,100359.28
2022-10-10T01:01:56.826Z,100358.44
2022-10-10T01:02:58.250Z,100362.06
2022-10-10T01:04:00.183Z,100355.63
2022-10-10T01:05:01.688Z,100359.28
2022-10-10T01:06:03.238Z,100361.50
2022-10-10T01:07:05.751Z,100356.75
2022-10-10T01:08:07.316Z,100359.84
2022-10-10T01:09:08.793Z,100360.94
2022-10-10T01:10:11.793Z,100364.84
2022-10-10T01:11:13.286Z,100357.56
2022-10-10T01:12:14.706Z,100357.03
2022-10-10T01:13:18.975Z,100358.16
2022-10-10T01:14:40.713Z,100357.31
2022-10-10T01:16:01.515Z,100356.75
2022-10-10T01:17:23.274Z,100355.06
2022-10-10T01:18:24.727Z,100356.50
2022-10-10T01:19:37.245Z,100362.09
2022-10-10T01:20:41.314Z,100348.91
2022-10-10T01:21:46.045Z,100358.16
2022-10-10T01:22:53.328Z,100355.63
2022-10-10T01:24:04.256Z,100350.31
2022-10-10T01:25:24.463Z,100343.31
2022-10-10T01:26:44.741Z,100344.72
2022-10-10T01:27:46.788Z,100341.94
2022-10-10T01:28:51.948Z,100351.44
2022-10-10T01:29:56.771Z,100350.03
2022-10-10T01:30:58.275Z,100339.94
2022-10-10T01:32:18.156Z,100344.72
2022-10-10T01:33:21.900Z,100344.72
2022-10-10T01:34:36.620Z,100348.63
2022-10-10T01:35:53.933Z,100346.41
2022-10-10T01:37:16.592Z,100342.75
2022-10-10T01:38:36.587Z,100338.56
2022-10-10T01:39:53.167Z,100338.56
2022-10-10T01:41:03.714Z,100334.94
2022-10-10T01:42:07.442Z,100348.09
2022-10-10T01:43:08.976Z,100346.13
2022-10-10T01:44:10.515Z,100339.69
2022-10-10T01:45:12.049Z,100337.97
2022-10-10T01:46:14.409Z,100340.78
2022-10-10T01:47:15.898Z,100339.09
2022-10-10T01:48:18.114Z,100341.34
2022-10-10T01:49:27.836Z,100347.50
2022-10-10T01:50:29.528Z,100343.03
2022-10-10T01:51:38.015Z,100339.69
2022-10-10T01:52:45.703Z,100332.09
2022-10-10T01:53:54.447Z,100332.38
2022-10-10T01:55:07.852Z,100325.94
2022-10-10T01:56:14.503Z,100334.63
2022-10-10T01:57:20.705Z,100337.44
2022-10-10T01:58:22.135Z,100327.34
2022-10-10T01:59:26.463Z,100330.16
2022-10-10T02:00:28.374Z,100323.44
2022-10-10T02:01:51.671Z,100329.03
2022-10-10T02:02:55.911Z,100327.34
2022-10-10T02:04:00.936Z,100333.78
2022-10-10T02:05:10.760Z,100329.88
2022-10-10T02:06:15.379Z,100335.47
2022-10-10T02:07:35.695Z,100329.03
2022-10-10T02:08:41.271Z,100330.72
2022-10-10T02:09:42.824Z,100327.91
2022-10-10T02:10:48.907Z,100325.13
2022-10-10T02:11:50.346Z,100330.72
2022-10-10T02:12:52.167Z,100323.44
2022-10-10T02:13:57.876Z,100329.88
2022-10-10T02:15:01.696Z,100317.84
2022-10-10T02:16:03.224Z,100315.88
2022-10-10T02:17:04.661Z,100318.41
2022-10-10T02:18:06.350Z,100320.34
2022-10-10T02:19:08.551Z,100324.00
2022-10-10T02:20:10.877Z,100328.47
2022-10-10T02:21:12.355Z,100326.78
2022-10-10T02:22:13.838Z,100321.19
2022-10-10T02:23:16.226Z,100321.19
2022-10-10T02:24:18.040Z,100323.16
2022-10-10T02:25:22.017Z,100319.53
2022-10-10T02:26:23.746Z,100328.19
2022-10-10T02:27:27.834Z,100328.19
2022-10-10T02:28:29.293Z,100316.16
2022-10-10T02:29:31.849Z,100325.41
2022-10-10T02:30:37.006Z,100320.63
2022-10-10T02:31:47.029Z,100324.56
2022-10-10T02:32:49.839Z,100323.44
2022-10-10T02:33:53.251Z,100318.97
2022-10-10T02:34:55.589Z,100319.81
2022-10-10T02:35:57.087Z,100323.44
2022-10-10T02:36:59.782Z,100325.69
2022-10-10T02:38:01.348Z,100314.50
2022-10-10T02:39:03.011Z,100317.28
2022-10-10T02:40:05.058Z,100326.81
2022-10-10T02:41:06.585Z,100326.25
2022-10-10T02:42:08.119Z,100311.69
2022-10-10T02:43:09.616Z,100316.47
2022-10-10T02:44:11.677Z,100321.78
2022-10-10T02:45:13.180Z,100315.34
2022-10-10T02:46:14.682Z,100322.06
2022-10-10T02:47:16.649Z,100315.59
2022-10-10T02:48:18.609Z,100312.22
2022-10-10T02:49:23.352Z,100334.34
2022-10-10T02:50:24.828Z,100323.44
2022-10-10T02:51:30.179Z,100326.50
2022-10-10T02:52:32.235Z,100327.63
2022-10-10T02:53:34.159Z,100329.59
2022-10-10T02:54:35.623Z,100323.97
2022-10-10T02:55:37.071Z,100325.09
2022-10-10T02:56:38.579Z,100321.47
2022-10-10T02:57:40.077Z,100327.06
2022-10-10T02:58:41.591Z,100320.63
2022-10-10T02:59:43.047Z,100321.75
2022-10-10T03:00:44.553Z,100321.75
2022-10-10T03:01:46.148Z,100317.28
2022-10-10T03:02:47.763Z,100322.88
2022-10-10T03:03:49.313Z,100318.69
2022-10-10T03:04:50.766Z,100318.69
2022-10-10T03:05:52.298Z,100316.97
2022-10-10T03:06:53.827Z,100318.94
2022-10-10T03:07:55.466Z,100310.81
2022-10-10T03:08:56.902Z,100322.25
2022-10-10T03:09:58.388Z,100324.50
2022-10-10T03:11:00.559Z,100322.81
2022-10-10T03:12:02.087Z,100317.50
2022-10-10T03:13:03.598Z,100316.66
2022-10-10T03:14:05.043Z,100321.41
2022-10-10T03:15:11.253Z,100317.78
2022-10-10T03:16:13.246Z,100322.53
2022-10-10T03:17:14.725Z,100321.69
2022-10-10T03:18:16.265Z,100332.06
2022-10-10T03:19:17.727Z,100330.38
2022-10-10T03:20:19.189Z,100329.25
2022-10-10T03:21:20.664Z,100329.50
2022-10-10T03:22:22.127Z,100333.41
2022-10-10T03:23:24.692Z,100328.94
2022-10-10T03:24:26.572Z,100316.06
2022-10-10T03:25:28.486Z,100323.91
2022-10-10T03:26:29.936Z,100326.72
2022-10-10T03:27:31.460Z,100324.19
2022-10-10T03:28:33.013Z,100313.56
2022-10-10T03:29:34.516Z,100319.16
2022-10-10T03:30:36.215Z,100317.75
2022-10-10T03:31:37.731Z,100318.84
2022-10-10T03:32:39.222Z,100324.44
2022-10-10T03:33:40.676Z,100322.75
2022-10-10T03:34:42.183Z,100318.00
2022-10-10T03:35:43.684Z,100318.00
2022-10-10T03:36:45.128Z,100318.84
2022-10-10T03:37:46.603Z,100321.91
2022-10-10T03:38:48.048Z,100327.50
2022-10-10T03:39:49.570Z,100327.50
2022-10-10T03:40:51.003Z,100321.91
2022-10-10T03:41:52.468Z,100331.16
2022-10-10T03:42:54.187Z,100328.34
2022-10-10T03:43:56.132Z,100329.47
2022-10-10T03:44:57.614Z,100321.09
2022-10-10T03:45:59.104Z,100325.84
2022-10-10T03:47:00.566Z,100308.22
2022-10-10T03:48:02.125Z,100325.84
2022-10-10T03:49:03.618Z,100329.47
2022-10-10T03:50:05.444Z,100325.00
2022-10-10T03:51:06.964Z,100325.84
2022-10-10T03:52:08.461Z,100326.69
2022-10-10T03:53:09.986Z,100326.69
2022-10-10T03:54:11.434Z,100325.84
2022-10-10T03:55:13.113Z,100326.69
2022-10-10T03:56:14.591Z,100322.19
2022-10-10T03:57:16.079Z,100337.84
2022-10-10T03:58:22.845Z,100331.44
2022-10-10T03:59:25.207Z,100332.53
2022-10-10T04:00:26.684Z,100325.00
2022-10-10T04:01:28.326Z,100323.31
2022-10-10T04:02:29.927Z,100318.84
2022-10-10T04:03:31.398Z,100324.16
2022-10-10T04:04:32.903Z,100320.81
2022-10-10T04:05:34.942Z,100325.56
2022-10-10T04:06:36.554Z,100316.31
2022-10-10T04:07:38.283Z,100321.09
2022-10-10T04:08:39.885Z,100333.38
2022-10-10T04:09:41.394Z,100327.78
2022-10-10T04:10:42.868Z,100325.28
2022-10-10T04:11:44.334Z,100326.38
2022-10-10T04:12:45.819Z,100328.34
2022-10-10T04:13:47.323Z,100328.59
2022-10-10T04:14:48.794Z,100327.75
2022-10-10T04:15:51.121Z,100319.38
2022-10-10T04:16:52.582Z,100326.91
2022-10-10T04:17:54.106Z,100323.28
2022-10-10T04:18:55.604Z,100320.75
2022-10-10T04:19:57.067Z,100320.75
2022-10-10T04:21:01.322Z,100322.72
2022-10-10T04:22:02.836Z,100327.75
2022-10-10T04:23:04.289Z,100323.28
2022-10-10T04:24:05.823Z,100324.41
2022-10-10T04:25:07.431Z,100331.38
2022-10-10T04:26:09.011Z,100324.94
2022-10-10T04:27:10.972Z,100323.28
2022-10-10T04:28:12.964Z,100323.28
2022-10-10T04:29:14.471Z,100316.81
2022-10-10T04:30:15.943Z,100316.81
2022-10-10T04:31:17.442Z,100306.47
2022-10-10T04:32:18.944Z,100327.16
2022-10-10T04:33:20.378Z,100320.72
2022-10-10T04:34:21.903Z,100316.81
2022-10-10T04:35:23.375Z,100326.31
2022-10-10T04:36:24.835Z,100327.16
2022-10-10T04:37:26.273Z,100329.94
2022-10-10T04:38:28.318Z,100323.53
2022-10-10T04:39:29.960Z,100329.09
2022-10-10T04:40:31.459Z,100333.84
2022-10-10T04:41:32.943Z,100333.03
2022-10-10T04:42:34.382Z,100327.72
2022-10-10T04:43:35.894Z,100339.44
2022-10-10T04:44:37.594Z,100330.50
2022-10-10T04:45:39.047Z,100323.22
2022-10-10T04:46:40.500Z,100334.97
2022-10-10T04:47:42.068Z,100334.13
2022-10-10T04:48:43.513Z,100340.56
2022-10-10T04:49:44.993Z,100341.69
2022-10-10T04:50:50.990Z,100338.88
2022-10-10T04:51:52.462Z,100343.91
2022-10-10T04:52:54.112Z,100335.53
2022-10-10T04:53:55.659Z,100336.38
2022-10-10T04:54:57.130Z,100343.34
2022-10-10T04:55:58.597Z,100345.31
2022-10-10T04:57:00.066Z,100340.56
2022-10-10T04:58:01.507Z,100343.34
2022-10-10T04:59:03.027Z,100346.72
2022-10-10T05:00:04.971Z,100349.22
2022-10-10T05:01:06.874Z,100346.44
2022-10-10T05:02:08.325Z,100341.69
2022-10-10T05:03:11.585Z,100346.16
2022-10-10T05:04:14.522Z,100336.66
2022-10-10T05:05:16.046Z,100345.03
2022-10-10T05:06:17.502Z,100348.94
2022-10-10T05:07:18.979Z,100345.59
2022-10-10T05:08:20.438Z,100344.75
2022-10-10T05:09:21.902Z,100343.91
2022-10-10T05:10:23.890Z,100342.78
2022-10-10T05:11:25.345Z,100334.41
2022-10-10T05:12:26.817Z,100341.69
2022-10-10T05:13:28.309Z,100338.59
2022-10-10T05:14:29.800Z,100334.69
2022-10-10T05:15:31.886Z,100333.84
2022-10-10T05:16:33.354Z,100329.09
2022-10-10T05:17:34.944Z,100339.16
2022-10-10T05:18:39.501Z,100338.31
2022-10-10T05:19:41.028Z,100342.81
2022-10-10T05:20:43.993Z,100333.56
2022-10-10T05:21:45.464Z,100328.81
2022-10-10T05:22:47.024Z,100319.59
2022-10-10T05:23:48.474Z,100326.88
2022-10-10T05:24:50.023Z,100321.56
2022-10-10T05:25:51.649Z,100336.38
2022-10-10T05:26:53.111Z,100329.09
2022-10-10T05:27:54.659Z,100328.25
2022-10-10T05:28:56.142Z,100325.47
2022-10-10T05:29:57.634Z,100326.59
2022-10-10T05:30:59.103Z,100328.81
2022-10-10T05:32:00.581Z,100321.56
2022-10-10T05:33:02.031Z,100326.31
2022-10-10T05:34:03.510Z,100331.88
2022-10-10T05:35:05.286Z,100320.72
2022-10-10T05:36:10.726Z,100322.34
2022-10-10T05:37:12.374Z,100327.97
2022-10-10T05:38:13.831Z,100328.81
2022-10-10T05:39:15.296Z,100331.88
2022-10-10T05:40:16.766Z,100334.69
2022-10-10T05:41:18.365Z,100333.56
2022-10-10T05:42:19.862Z,100329.94
2022-10-10T05:43:21.310Z,100328.81
2022-10-10T05:44:22.748Z,100326.03
2022-10-10T05:45:24.239Z,100332.44
2022-10-10T05:46:27.473Z,100328.81
2022-10-10T05:47:28.962Z,100331.34
2022-10-10T05:48:30.470Z,100337.75
2022-10-10T05:49:31.921Z,100343.34
2022-10-10T05:50:34.431Z,100336.09
2022-10-10T05:51:36.330Z,100324.00
2022-10-10T05:52:37.779Z,100343.63
2022-10-10T05:53:39.331Z,100342.78
2022-10-10T05:54:40.804Z,100340.00
2022-10-10T05:55:43.368Z,100338.03
2022-10-10T05:56:44.875Z,100335.25
2022-10-10T05:57:46.410Z,100334.13
2022-10-10T05:58:47.895Z,100331.34
2022-10-10T05:59:49.373Z,100333.00
2022-10-10T06:00:50.881Z,100326.59
2022-10-10T06:01:52.581Z,100326.59
2022-10-10T06:02:54.700Z,100339.44
2022-10-10T06:03:56.453Z,100340.56
2022-10-10T06:04:57.912Z,100340.28
2022-10-10T06:05:59.356Z,100341.13
2022-10-10T06:07:00.831Z,100337.22
2022-10-10T06:08:10.624Z,100343.63
2022-10-10T06:09:13.253Z,100339.44
2022-10-10T06:10:15.012Z,100327.16
2022-10-10T06:11:17.488Z,100340.88
2022-10-10T06:12:19.007Z,100336.13
2022-10-10T06:13:24.233Z,100345.06
2022-10-10T06:14:26.118Z,100350.66
2022-10-10T06:15:27.576Z,100345.91
2022-10-10T06:16:29.070Z,100341.16
2022-10-10T06:17:30.529Z,100337.25
2022-10-10T06:18:31.992Z,100349.00
2022-10-10T06:19:33.472Z,100349.00
2022-10-10T06:20:35.631Z,100350.13
2022-10-10T06:21:37.115Z,100345.63
2022-10-10T06:22:38.568Z,100352.34
2022-10-10T06:23:40.074Z,100355.97
2022-10-10T06:24:41.628Z,100351.22
2022-10-10T06:25:43.072Z,100349.28
2022-10-10T06:26:44.562Z,100350.13
2022-10-10T06:27:46.021Z,100351.78
2022-10-10T06:28:47.606Z,100350.66
2022-10-10T06:29:49.121Z,100359.06
2022-10-10T06:30:50.748Z,100342.28
2022-10-10T06:31:52.192Z,100348.44
2022-10-10T06:32:56.780Z,100348.16
2022-10-10T06:33:58.624Z,100361.88
2022-10-10T06:35:00.159Z,100351.56
2022-10-10T06:36:03.643Z,100365.53
2022-10-10T06:37:05.284Z,100368.03
2022-10-10T06:38:06.741Z,100368.88
2022-10-10T06:39:08.202Z,100370.28
2022-10-10T06:40:09.918Z,100371.97
2022-10-10T06:41:11.380Z,100375.31
2022-10-10T06:42:12.862Z,100371.41
2022-10-10T06:43:14.614Z,100370.28
2022-10-10T06:44:18.812Z,100374.75
2022-10-10T06:45:20.339Z,100372.56
2022-10-10T06:46:21.868Z,100377.59
2022-10-10T06:47:23.383Z,100379.56
2022-10-10T06:48:25.002Z,100373.69
2022-10-10T06:49:26.508Z,100387.38
2022-10-10T06:50:27.963Z,100384.31
2022-10-10T06:51:29.424Z,100393.25
2022-10-10T06:52:30.884Z,100380.97
2022-10-10T06:53:32.435Z,100384.34
2022-10-10T06:54:33.883Z,100387.97
2022-10-10T06:55:35.694Z,100383.22
2022-10-10T06:56:37.136Z,100388.53
2022-10-10T06:57:38.615Z,100388.25
2022-10-10T06:58:40.043Z,100398.91
2022-10-10T06:59:41.504Z,100397.78
2022-10-10T07:00:48.163Z,100394.72
2022-10-10T07:01:49.962Z,100391.09
2022-10-10T07:02:52.607Z,100395.56
2022-10-10T07:03:54.270Z,100392.25
2022-10-10T07:04:55.845Z,100400.03
2022-10-10T07:05:58.229Z,100400.03
2022-10-10T07:06:59.703Z,100401.75
2022-10-10T07:08:01.187Z,100403.44
2022-10-10T07:09:02.709Z,100405.63
2022-10-10T07:10:04.659Z,100396.16
2022-10-10T07:11:07.221Z,100399.53
2022-10-10T07:12:09.103Z,100404.00
2022-10-10T07:13:10.943Z,100398.97
2022-10-10T07:14:12.716Z,100395.03
2022-10-10T07:15:14.481Z,100404.00
2022-10-10T07:16:15.959Z,100402.88
2022-10-10T07:17:17.464Z,100400.91
2022-10-10T07:18:18.975Z,100393.09
2022-10-10T07:19:21.611Z,100396.72
2022-10-10T07:20:23.115Z,100403.19
2022-10-10T07:21:24.586Z,100399.53
2022-10-10T07:22:26.252Z,100400.09
2022-10-10T07:23:28.035Z,100405.13
2022-10-10T07:24:29.475Z,100391.72
2022-10-10T07:25:30.983Z,100404.31
2022-10-10T07:26:37.086Z,100400.38
2022-10-10T07:27:38.567Z,100405.69
2022-10-10T07:28:40.138Z,100411.88
2022-10-10T07:29:41.939Z,100407.13
2022-10-10T07:30:44.041Z,100405.72
2022-10-10T07:31:45.519Z,100405.72
2022-10-10T07:32:46.988Z,100407.41
2022-10-10T07:33:50.527Z,100410.75
2022-10-10T07:34:53.575Z,100408.53
2022-10-10T07:35:55.062Z,100420.88
2022-10-10T07:36:56.535Z,100419.75
2022-10-10T07:37:57.975Z,100424.22
2022-10-10T07:38:59.438Z,100423.38
2022-10-10T07:40:01.292Z,100425.34
2022-10-10T07:41:06.637Z,100418.06
2022-10-10T07:42:08.116Z,100424.25
2022-10-10T07:43:09.713Z,100420.03
2022-10-10T07:44:11.157Z,100425.91
2022-10-10T07:45:12.664Z,100420.88
2022-10-10T07:46:17.542Z,100425.06
2022-10-10T07:47:19.055Z,100423.69
2022-10-10T07:48:20.479Z,100427.88
2022-10-10T07:49:21.913Z,100433.75
2022-10-10T07:50:25.969Z,100433.47
2022-10-10T07:51:27.460Z,100432.06
2022-10-10T07:52:28.967Z,100428.44
2022-10-10T07:53:30.717Z,100438.81
2022-10-10T07:54:32.283Z,100435.44
2022-10-10T07:55:33.921Z,100431.53
2022-10-10T07:56:35.452Z,100430.13
2022-10-10T07:57:36.987Z,100428.72
2022-10-10T07:58:38.454Z,100429.28
2022-10-10T07:59:40.759Z,100428.72
2022-10-10T08:00:42.348Z,100421.72
2022-10-10T08:01:43.862Z,100422.25
2022-10-10T08:02:45.461Z,100422.81
2022-10-10T08:03:47.085Z,100420.31
2022-10-10T08:04:48.589Z,100423.66
2022-10-10T08:05:50.128Z,100428.69
2022-10-10T08:06:51.610Z,100429.25
2022-10-10T08:07:53.548Z,100424.78
2022-10-10T08:08:55.301Z,100429.81
2022-10-10T08:09:56.815Z,100430.94
2022-10-10T08:10:58.465Z,100428.69
2022-10-10T08:11:59.939Z,100424.19
2022-10-10T08:13:01.383Z,100424.78
2022-10-10T08:14:03.299Z,100430.94
2022-10-10T08:15:05.604Z,100425.63
2022-10-10T08:16:07.101Z,100425.34
2022-10-10T08:17:08.543Z,100416.34
2022-10-10T08:18:10.035Z,100417.44
2022-10-10T08:19:11.530Z,100414.94
2022-10-10T08:20:13.036Z,100415.50
2022-10-10T08:21:14.735Z,100411.28
2022-10-10T08:22:16.200Z,100410.16
2022-10-10T08:23:20.548Z,100420.78
2022-10-10T08:24:24.733Z,100409.59
2022-10-10T08:25:26.352Z,100411.28
2022-10-10T08:26:27.839Z,100419.94
2022-10-10T08:27:29.352Z,100407.88
2022-10-10T08:28:31.192Z,100420.25
2022-10-10T08:29:33.302Z,100418.81
2022-10-10T08:30:34.777Z,100423.00
2022-10-10T08:31:36.290Z,100420.22
2022-10-10T08:32:37.786Z,100419.63
2022-10-10T08:33:39.676Z,100425.78
2022-10-10T08:34:41.127Z,100416.25
2022-10-10T08:35:42.640Z,100419.63
2022-10-10T08:36:44.125Z,100414.84
2022-10-10T08:37:45.637Z,100411.75
2022-10-10T08:38:47.707Z,100416.25
2022-10-10T08:39:49.849Z,100418.47
2022-10-10T08:40:51.549Z,100414.53
2022-10-10T08:41:55.258Z,100406.66
2022-10-10T08:42:56.986Z,100412.28
2022-10-10T08:44:00.963Z,100408.91
2022-10-10T08:45:03.714Z,100420.69
2022-10-10T08:46:08.691Z,100416.75
2022-10-10T08:47:10.092Z,100415.06
2022-10-10T08:48:12.480Z,100411.97
2022-10-10T08:49:18.684Z,100404.94
2022-10-10T08:50:21.813Z,100413.66
2022-10-10T08:51:30.631Z,100418.44
2022-10-10T08:52:32.702Z,100414.19
2022-10-10T08:53:46.906Z,100413.38
2022-10-10T08:54:48.707Z,100413.13
2022-10-10T08:55:50.156Z,100414.50
2022-10-10T08:56:51.715Z,100414.78
2022-10-10T08:58:11.882Z,100411.94
2022-10-10T08:59:23.551Z,100417.56
2022-10-10T09:00:26.350Z,100419.53
2022-10-10T09:01:29.066Z,100409.47
2022-10-10T09:02:54.873Z,100414.25
2022-10-10T09:04:00.662Z,100403.88
2022-10-10T09:05:02.109Z,100410.00
2022-10-10T09:06:06.371Z,100409.44
2022-10-10T09:07:10.696Z,100403.47
2022-10-10T09:08:15.693Z,100412.72
2022-10-10T09:09:23.125Z,100404.28
2022-10-10T09:10:33.849Z,100413.78
2022-10-10T09:11:41.550Z,100405.56
2022-10-10T09:13:02.094Z,100414.22
2022-10-10T09:14:15.494Z,100405.22
2022-10-10T09:15:46.344Z,100402.34
2022-10-10T09:16:50.485Z,100398.94
2022-10-10T09:17:55.615Z,100400.84
2022-10-10T09:19:00.611Z,100400.03
2022-10-10T09:20:18.040Z,100401.69
2022-10-10T09:21:26.492Z,100409.00
2022-10-10T09:22:29.854Z,100407.28
2022-10-10T09:23:33.107Z,100402.69
2022-10-10T09:24:41.196Z,100401.53
2022-10-10T09:26:11.414Z,100394.44
2022-10-10T09:27:15.116Z,100393.50
2022-10-10T09:28:18.668Z,100399.66
2022-10-10T09:29:39.563Z,100404.06
2022-10-10T09:30:43.224Z,100401.16
2022-10-10T09:31:46.625Z,100408.34
2022-10-10T09:32:53.389Z,100397.56
2022-10-10T09:34:10.948Z,100389.22
2022-10-10T09:35:18.105Z,100400.81
2022-10-10T09:36:21.201Z,100398.41
2022-10-10T09:37:53.704Z,100396.38
2022-10-10T09:39:00.337Z,100393.22
2022-10-10T09:40:04.747Z,100390.09
2022-10-10T09:41:09.607Z,100397.47
2022-10-10T09:42:12.725Z,100387.75
2022-10-10T09:43:17.476Z,100393.22
2022-10-10T09:44:20.031Z,100393.41
2022-10-10T09:45:27.299Z,100387.41
2022-10-10T09:46:29.270Z,100386.00
2022-10-10T09:47:31.276Z,100387.53
2022-10-10T09:48:39.797Z,100381.28
2022-10-10T09:49:42.061Z,100383.00
2022-10-10T09:50:44.760Z,100381.09
2022-10-10T09:51:47.128Z,100377.03
2022-10-10T09:52:49.366Z,100377.91
2022-10-10T09:53:51.197Z,100372.41
2022-10-10T09:54:56.013Z,100379.22
2022-10-10T09:55:58.001Z,100386.31
2022-10-10T09:56:59.738Z,100378.16
2022-10-10T09:58:03.819Z,100380.25
2022-10-10T09:59:06.083Z,100381.81
2022-10-10T10:00:25.631Z,100367.03
2022-10-10T10:01:29.110Z,100371.56
2022-10-10T10:02:31.492Z,100368.28
2022-10-10T10:03:33.194Z,100370.66
2022-10-10T10:04:34.671Z,100371.69
2022-10-10T10:05:36.109Z,100366.34
2022-10-10T10:06:37.616Z,100364.00
2022-10-10T10:07:46.910Z,100367.97
2022-10-10T10:08:49.985Z,100373.66
2022-10-10T10:10:01.307Z,100370.28
2022-10-10T10:11:03.163Z,100365.25
2022-10-10T10:12:05.322Z,100366.38
2022-10-10T10:13:12.281Z,100370.84
2022-10-10T10:14:18.965Z,100372.97
2022-10-10T10:15:23.119Z,100367.41
2022-10-10T10:16:40.142Z,100368.88
2022-10-10T10:17:41.636Z,100359.25
2022-10-10T10:18:43.777Z,100364.13
2022-10-10T10:19:45.786Z,100363.31
2022-10-10T10:20:48.542Z,100362.72
2022-10-10T10:21:50.470Z,100352.25
2022-10-10T10:23:57.826Z,100362.34
2022-10-10T10:24:59.935Z,100357.16
2022-10-10T10:26:02.411Z,100360.06
2022-10-10T10:27:14.715Z,100357.50
2022-10-10T10:28:16.728Z,100362.16
2022-10-10T10:29:24.376Z,100353.28
2022-10-10T10:30:25.971Z,100350.59
2022-10-10T10:31:31.043Z,100356.78
2022-10-10T10:32:32.540Z,100348.72
2022-10-10T10:33:34.151Z,100357.16
2022-10-10T10:34:44.188Z,100356.19
2022-10-10T10:35:51.912Z,100351.09
2022-10-10T10:36:59.773Z,100354.63
2022-10-10T10:38:05.386Z,100356.91
2022-10-10T10:39:09.956Z,100358.31
2022-10-10T10:40:25.767Z,100359.97
2022-10-10T10:41:30.114Z,100361.75
2022-10-10T10:42:43.835Z,100360.66
2022-10-10T10:44:00.855Z,100362.09
2022-10-10T10:45:11.148Z,100359.50
2022-10-10T10:46:28.010Z,100363.31
2022-10-10T10:49:01.489Z,100356.38
2022-10-10T10:50:12.370Z,100365.13
2022-10-10T10:51:22.925Z,100354.81
2022-10-10T10:52:47.539Z,100355.88
2022-10-10T10:54:03.742Z,100351.16
2022-10-10T10:55:11.114Z,100359.22
2022-10-10T10:56:18.662Z,100357.53
2022-10-10T10:57:37.101Z,100356.81
2022-10-10T10:59:30.309Z,100352.41
2022-10-10T11:00:20.969Z,100359.78
2022-10-10T11:01:56.600Z,100354.94
2022-10-10T11:04:15.645Z,100354.56
2022-10-10T11:05:19.452Z,100351.81
2022-10-10T11:06:21.162Z,100354.47
2022-10-10T11:07:23.276Z,100347.09
2022-10-10T11:08:43.531Z,100347.25
2022-10-10T11:09:49.974Z,100354.06
2022-10-10T11:10:54.904Z,100347.88
2022-10-10T11:12:03.596Z,100349.53
2022-10-10T11:13:08.720Z,100349.31
2022-10-10T11:14:18.205Z,100345.88
2022-10-10T11:17:21.272Z,100348.78
2022-10-10T11:18:22.768Z,100349.03
2022-10-10T11:19:34.530Z,100346.91
2022-10-10T11:20:49.716Z,100351.28
2022-10-10T11:21:53.453Z,100355.81
2022-10-10T11:23:06.547Z,100351.66
2022-10-10T11:24:11.829Z,100349.50
2022-10-10T11:25:23.807Z,100341.81
2022-10-10T11:26:45.551Z,100345.94
2022-10-10T11:27:48.236Z,100339.41
2022-10-10T11:29:08.096Z,100336.91
2022-10-10T11:30:14.377Z,100340.00
2022-10-10T11:31:20.995Z,100336.44
2022-10-10T11:32:28.207Z,100346.25
2022-10-10T11:33:31.180Z,100338.78
2022-10-10T11:34:34.098Z,100348.50
2022-10-10T11:35:40.777Z,100346.59
2022-10-10T11:36:42.639Z,100342.28
2022-10-10T11:37:46.242Z,100345.16
2022-10-10T11:38:57.787Z,100343.75
2022-10-10T11:40:00.043Z,100338.53
2022-10-10T11:41:19.903Z,100347.34
2022-10-10T11:42:27.783Z,100343.31
2022-10-10T11:43:35.040Z,100347.34
2022-10-10T11:44:37.582Z,100352.56
2022-10-10T11:45:52.323Z,100342.34
2022-10-10T11:46:57.442Z,100341.28
2022-10-10T11:48:02.160Z,100341.88
2022-10-10T11:49:07.792Z,100340.84
2022-10-10T11:50:13.473Z,100345.69
2022-10-10T11:51:17.061Z,100346.16
2022-10-10T11:52:33.987Z,100344.50
2022-10-10T11:53:37.593Z,100346.97
2022-10-10T11:54:41.645Z,100343.91
2022-10-10T11:55:51.676Z,100341.56
2022-10-10T11:56:53.830Z,100342.84
2022-10-10T11:58:18.882Z,100349.50
2022-10-10T11:59:41.324Z,100335.25
2022-10-10T12:00:50.179Z,100349.97
2022-10-10T12:01:55.901Z,100342.13
2022-10-10T12:02:57.462Z,100331.94
2022-10-10T12:03:59.008Z,100341.66
2022-10-10T12:05:00.486Z,100325.41
2022-10-10T12:06:07.713Z,100334.78
2022-10-10T12:07:13.964Z,100331.81
2022-10-10T12:08:35.290Z,100331.81
2022-10-10T12:09:43.732Z,100331.00
2022-10-10T12:10:52.880Z,100340.69
2022-10-10T12:12:04.859Z,100333.84
2022-10-10T12:13:16.315Z,100333.84
2022-10-10T12:14:18.192Z,100334.31
2022-10-10T12:15:28.688Z,100330.38
2022-10-10T12:16:31.367Z,100329.19